DAUB

Biskra Airport

Biskra, Algeria
TAF DAUB 210500Z 2106/2206 12016KT 9999 FEW030 TEMPO 2106/2114 13017G35KT PROB40 TEMPO 2106/2112 2000 DRSA NSC BECMG 2118/2120 25008KT
Issued Valid From Valid To
Jul-21 @ 05:00 UTC
(5 hours ago)
Jul-21 @ 06:00 UTC
(4 hours ago)
Jul-22 @ 06:00 UTC
(in 20 hours)
Jul-21 @ 06:00 to Jul-21 @ 18:00
TAF DAUB 210500Z 2106/2206 12016KT 9999 FEW030
Wind Visibility Clouds
120° at 16 knots 10,000+ meters
  • Few at 3,000' AGL
Temporary  (Probability 40%) Jul-21 @ 06:00 to Jul-21 @ 12:00
PROB40 TEMPO 2106/2112 2000 DRSA NSC
Visibility Clouds Conditions
1,996 meters
  • No significant clouds
  • Low drifting
  • Sand
Temporary Jul-21 @ 06:00 to Jul-21 @ 14:00
TEMPO 2106/2114 13017G35KT
Wind
130° at 17 knots
 Gusting to 35 knots
Becoming Jul-21 @ 18:00 to Jul-22 @ 06:00
BECMG 2118/2120 25008KT
Wind Visibility Clouds
250° at 8 knots 10,000+ meters
  • Few at 3,000' AGL
TAF DAUB 210500Z 2106/2206 12016KT 9999 FEW030 TEMPO 2106/2114 13017G35KT PROB40 TEMPO 2106/2112 2000 DRSA NSC BECMG 2118/2120 25008KT
Issued Jul-21 @ 05:00 UTC
(5 hours ago)
Valid From Jul-21 @ 06:00 UTC
(4 hours ago)
Valid To Jul-22 @ 06:00 UTC
(in 20 hours)
Jul-21 @ 06:00 - Jul-21 @ 18:00
Wind Visibility
120° at 16 knots 10,000+ meters
Clouds
  • Few at 3,000' AGL
Probability 40% Temporary Jul-21 @ 06:00 - Jul-21 @ 12:00
Clouds
  • No significant clouds
Conditions
  • Low drifting
  • Sand
Temporary Jul-21 @ 06:00 - Jul-21 @ 14:00
Wind
130° at 17 knots
 Gusting to 35 knots
Becoming Jul-21 @ 18:00 - Jul-22 @ 06:00
Wind Visibility
250° at 8 knots 10,000+ meters
Clouds
  • Few at 3,000' AGL